Time;durP1;ratioP1;P1;durP2;ratioP2;P2;SDS_P1;SDS_P2;PMS_P1;PMS_P2;Temp;Humidity;BMP_temperature;BMP_pressure;BME280_temperature;BME280_humidity;BME280_pressure;Samples;Min_cycle;Max_cycle;Signal;HPM_P1;HPM_P2
2023/11/03 00:00:02;;;;;;;2.97;1.30;;;;;;;;;;5041966;28;20412;-60
2023/11/03 00:02:30;;;;;;;2.88;1.52;;;;;;;;;;5040941;28;20060;-60
2023/11/03 00:05:00;;;;;;;3.15;1.60;;;;;;;;;;5042522;28;20156;-60
2023/11/03 00:07:26;;;;;;;4.57;1.80;;;;;;;;;;5041341;28;20416;-60
2023/11/03 00:09:52;;;;;;;3.60;2.10;;;;;;;;;;5043137;28;20871;-60
2023/11/03 00:12:18;;;;;;;6.22;2.28;;;;;;;;;;5043106;28;20036;-60
2023/11/03 00:14:45;;;;;;;4.88;2.30;;;;;;;;;;5021374;28;20043;-60
2023/11/03 00:17:13;;;;;;;6.45;3.35;;;;;;;;;;5040901;28;20041;-60
2023/11/03 00:19:40;;;;;;;7.68;3.03;;;;;;;;;;5039174;28;20118;-60
2023/11/03 00:22:06;;;;;;;9.02;5.03;;;;;;;;;;5041461;28;20131;-60
2023/11/03 00:24:32;;;;;;;6.97;3.33;;;;;;;;;;5040908;28;20044;-60
2023/11/03 00:26:58;;;;;;;7.95;3.63;;;;;;;;;;5041337;28;20044;-60
2023/11/03 00:29:25;;;;;;;7.07;3.78;;;;;;;;;;5044680;28;20044;-60
2023/11/03 00:31:52;;;;;;;9.18;3.80;;;;;;;;;;5044976;28;20468;-60
2023/11/03 00:34:18;;;;;;;9.43;4.43;;;;;;;;;;5042087;28;20044;-60
2023/11/03 00:36:47;;;;;;;7.32;4.38;;;;;;;;;;5042089;28;20409;-60
2023/11/03 00:39:14;;;;;;;8.02;4.75;;;;;;;;;;5041196;28;20047;-60
2023/11/03 00:41:41;;;;;;;9.45;5.22;;;;;;;;;;5041270;28;20064;-60
2023/11/03 00:44:08;;;;;;;8.57;5.22;;;;;;;;;;5041725;28;20037;-60
2023/11/03 00:46:38;;;;;;;14.80;6.28;;;;;;;;;;5041601;28;20052;-60
2023/11/03 00:49:08;;;;;;;7.75;5.00;;;;;;;;;;5041243;28;20467;-60
2023/11/03 00:51:35;;;;;;;12.68;5.65;;;;;;;;;;5044292;28;20090;-60
2023/11/03 00:54:04;;;;;;;10.18;5.50;;;;;;;;;;5047634;28;20116;-60
2023/11/03 00:56:35;;;;;;;8.10;5.20;;;;;;;;;;5047057;28;20040;-60
2023/11/03 00:59:02;;;;;;;9.82;5.32;;;;;;;;;;5042059;28;20065;-60
2023/11/03 01:01:29;;;;;;;11.63;5.60;;;;;;;;;;5042266;28;20113;-60
2023/11/03 01:03:56;;;;;;;10.07;5.10;;;;;;;;;;5045609;28;20566;-60
2023/11/03 01:06:22;;;;;;;8.98;5.05;;;;;;;;;;5046674;28;20072;-60
2023/11/03 01:08:51;;;;;;;11.18;5.45;;;;;;;;;;5021484;28;20554;-60
2023/11/03 01:11:17;;;;;;;17.33;5.90;;;;;;;;;;5047656;28;20045;-60
2023/11/03 01:13:44;;;;;;;9.15;5.13;;;;;;;;;;5046580;28;20040;-60
2023/11/03 01:16:10;;;;;;;8.40;5.25;;;;;;;;;;5051065;28;20049;-60
2023/11/03 01:18:39;;;;;;;12.13;6.20;;;;;;;;;;5052244;28;20063;-60
2023/11/03 01:21:12;;;;;;;53.72;5.95;;;;;;;;;;5051131;28;20048;-60
2023/11/03 01:23:42;;;;;;;11.98;5.75;;;;;;;;;;5049099;28;20037;-60
2023/11/03 01:26:12;;;;;;;9.13;5.20;;;;;;;;;;5043599;28;20040;-60
2023/11/03 01:28:38;;;;;;;11.18;5.10;;;;;;;;;;5049094;28;20078;-60
2023/11/03 01:31:05;;;;;;;14.60;5.78;;;;;;;;;;5049594;28;20772;-60
2023/11/03 01:33:32;;;;;;;9.45;5.82;;;;;;;;;;5046054;28;20127;-60
2023/11/03 01:35:58;;;;;;;15.07;5.15;;;;;;;;;;5044437;28;20124;-60
2023/11/03 01:38:25;;;;;;;9.85;5.15;;;;;;;;;;5044779;28;20056;-60
2023/11/03 01:40:51;;;;;;;9.05;4.80;;;;;;;;;;5044121;28;20493;-60
2023/11/03 01:43:17;;;;;;;37.55;5.30;;;;;;;;;;5045969;28;20115;-60
2023/11/03 01:45:44;;;;;;;8.27;4.05;;;;;;;;;;5044182;28;20029;-60
2023/11/03 01:48:10;;;;;;;11.05;4.22;;;;;;;;;;5044697;28;20496;-60
2023/11/03 01:50:36;;;;;;;9.93;4.35;;;;;;;;;;5042796;28;20090;-60
2023/11/03 01:53:03;;;;;;;10.07;4.50;;;;;;;;;;5042616;28;20128;-60
2023/11/03 01:55:30;;;;;;;8.82;4.13;;;;;;;;;;5046153;28;20528;-60
2023/11/03 01:57:57;;;;;;;7.70;4.00;;;;;;;;;;5051197;28;20078;-60
2023/11/03 02:00:24;;;;;;;11.13;5.00;;;;;;;;;;5046317;28;20129;-60
2023/11/03 02:02:50;;;;;;;8.48;4.80;;;;;;;;;;5043404;28;20052;-60
2023/11/03 02:05:16;;;;;;;9.18;4.60;;;;;;;;;;5043104;28;20080;-60
2023/11/03 02:07:43;;;;;;;10.98;4.03;;;;;;;;;;5044585;28;20119;-60
2023/11/03 02:10:10;;;;;;;12.07;4.20;;;;;;;;;;5044293;28;20073;-60
2023/11/03 02:12:36;;;;;;;8.50;4.30;;;;;;;;;;5043764;28;20169;-60
2023/11/03 02:15:05;;;;;;;8.98;4.60;;;;;;;;;;5025465;28;20048;-60
2023/11/03 02:17:31;;;;;;;7.57;3.83;;;;;;;;;;5043490;28;20496;-60
2023/11/03 02:19:58;;;;;;;14.65;4.43;;;;;;;;;;5041265;28;20104;-60
2023/11/03 02:22:24;;;;;;;14.23;3.90;;;;;;;;;;5042402;28;20049;-60
2023/11/03 02:24:50;;;;;;;9.27;3.83;;;;;;;;;;5042902;28;20068;-60
2023/11/03 02:27:16;;;;;;;10.45;3.67;;;;;;;;;;5042854;28;20057;-60
2023/11/03 02:29:43;;;;;;;10.20;3.75;;;;;;;;;;5043776;28;20135;-60
2023/11/03 02:32:10;;;;;;;5.13;3.20;;;;;;;;;;5043708;28;20391;-60
2023/11/03 02:34:36;;;;;;;12.23;5.53;;;;;;;;;;5043844;28;20606;-60
2023/11/03 02:37:02;;;;;;;12.23;4.18;;;;;;;;;;5046324;28;20040;-59
2023/11/03 02:39:30;;;;;;;8.43;3.78;;;;;;;;;;5043004;28;20479;-60
2023/11/03 02:41:56;;;;;;;9.25;4.30;;;;;;;;;;5047238;28;20116;-60
2023/11/03 02:44:22;;;;;;;5.70;3.90;;;;;;;;;;5046115;28;20033;-60
2023/11/03 02:46:49;;;;;;;6.47;3.45;;;;;;;;;;5049131;28;20076;-60
2023/11/03 02:49:15;;;;;;;7.30;3.78;;;;;;;;;;5049197;28;20381;-60
2023/11/03 02:51:41;;;;;;;7.78;3.92;;;;;;;;;;5048167;28;20056;-60
2023/11/03 02:54:07;;;;;;;7.38;4.10;;;;;;;;;;5048724;28;20098;-60
2023/11/03 02:56:34;;;;;;;8.30;4.28;;;;;;;;;;5042140;28;20055;-60
2023/11/03 02:59:00;;;;;;;7.70;4.32;;;;;;;;;;5043630;28;20098;-60
2023/11/03 03:01:36;;;;;;;9.82;4.63;;;;;;;;;;5043353;28;20066;-60
2023/11/03 03:04:02;;;;;;;10.05;4.68;;;;;;;;;;5043800;28;20464;-60
2023/11/03 03:06:28;;;;;;;11.75;5.32;;;;;;;;;;5042344;28;20049;-60
2023/11/03 03:08:55;;;;;;;9.80;4.88;;;;;;;;;;5041859;28;20037;-60
2023/11/03 03:11:21;;;;;;;12.48;5.07;;;;;;;;;;5043624;28;20033;-60
2023/11/03 03:13:47;;;;;;;10.32;5.20;;;;;;;;;;5044397;28;20310;-60
2023/11/03 03:16:17;;;;;;;9.30;5.57;;;;;;;;;;5042347;28;20123;-60
2023/11/03 03:18:43;;;;;;;12.38;6.03;;;;;;;;;;5042763;28;20128;-60
2023/11/03 03:21:09;;;;;;;11.65;5.22;;;;;;;;;;5041976;28;21413;-60
2023/11/03 03:23:35;;;;;;;11.77;5.50;;;;;;;;;;5042388;28;20067;-59
2023/11/03 03:26:01;;;;;;;8.77;5.25;;;;;;;;;;5041873;28;20107;-60
2023/11/03 03:28:28;;;;;;;51.13;7.60;;;;;;;;;;5042306;28;20520;-60
2023/11/03 03:30:54;;;;;;;11.25;5.85;;;;;;;;;;5044549;28;20136;-60
2023/11/03 03:33:20;;;;;;;10.05;5.38;;;;;;;;;;5044820;28;20091;-60
2023/11/03 03:35:46;;;;;;;9.68;5.82;;;;;;;;;;5041309;28;20069;-60
2023/11/03 03:38:12;;;;;;;15.43;6.18;;;;;;;;;;5023759;28;20056;-59
2023/11/03 03:40:39;;;;;;;13.93;5.85;;;;;;;;;;5041957;28;20041;-60
2023/11/03 03:43:05;;;;;;;19.00;7.93;;;;;;;;;;5040763;28;20646;-60
2023/11/03 03:45:31;;;;;;;12.45;5.70;;;;;;;;;;5042128;28;20115;-60
2023/11/03 03:47:57;;;;;;;11.73;6.38;;;;;;;;;;5042475;28;20135;-60
2023/11/03 03:50:23;;;;;;;14.93;6.78;;;;;;;;;;5043780;28;20443;-60
2023/11/03 03:52:49;;;;;;;11.55;6.47;;;;;;;;;;5041207;28;20037;-60
2023/11/03 03:55:15;;;;;;;14.40;6.07;;;;;;;;;;5039946;28;20647;-60
2023/11/03 03:57:42;;;;;;;13.55;7.15;;;;;;;;;;5038156;28;20045;-60
2023/11/03 04:00:08;;;;;;;13.18;6.95;;;;;;;;;;5043495;28;20049;-60
2023/11/03 04:02:34;;;;;;;14.80;7.30;;;;;;;;;;5042461;28;20041;-60
2023/11/03 04:05:01;;;;;;;15.02;6.60;;;;;;;;;;5046963;28;20045;-60
2023/11/03 04:07:27;;;;;;;10.07;6.28;;;;;;;;;;5044851;28;20053;-60
2023/11/03 04:09:53;;;;;;;16.17;6.20;;;;;;;;;;5048060;28;20148;-60
2023/11/03 04:12:20;;;;;;;11.05;6.32;;;;;;;;;;5042522;28;20404;-60
2023/11/03 04:14:46;;;;;;;10.07;5.53;;;;;;;;;;5040705;28;20049;-59
2023/11/03 04:17:12;;;;;;;13.63;6.65;;;;;;;;;;5041851;28;20097;-60
2023/11/03 04:19:38;;;;;;;14.13;6.05;;;;;;;;;;5041337;28;20052;-60
2023/11/03 04:22:04;;;;;;;12.93;5.97;;;;;;;;;;5048128;28;20068;-60
2023/11/03 04:24:31;;;;;;;12.70;6.10;;;;;;;;;;5029644;28;20049;-60
2023/11/03 04:26:57;;;;;;;17.83;5.63;;;;;;;;;;5045419;28;20091;-60
2023/11/03 04:29:23;;;;;;;9.50;5.72;;;;;;;;;;5043240;28;20433;-60
2023/11/03 04:31:50;;;;;;;12.35;5.28;;;;;;;;;;5041371;28;20119;-59
2023/11/03 04:34:16;;;;;;;10.02;4.32;;;;;;;;;;5040574;28;20076;-60
2023/11/03 04:36:43;;;;;;;9.98;4.82;;;;;;;;;;5041907;28;20049;-60
2023/11/03 04:39:09;;;;;;;9.07;4.90;;;;;;;;;;5024040;28;20103;-60
2023/11/03 04:41:35;;;;;;;7.60;4.65;;;;;;;;;;5040769;28;20097;-60
2023/11/03 04:44:01;;;;;;;10.18;4.63;;;;;;;;;;5043190;28;20212;-60
2023/11/03 04:46:28;;;;;;;13.05;5.35;;;;;;;;;;5045933;28;20033;-60
2023/11/03 04:48:54;;;;;;;13.77;4.97;;;;;;;;;;5045242;28;20417;-60
2023/11/03 04:51:20;;;;;;;9.95;4.90;;;;;;;;;;5046345;28;20543;-60
2023/11/03 04:53:47;;;;;;;9.93;4.75;;;;;;;;;;5046368;28;20436;-59
2023/11/03 04:56:13;;;;;;;8.57;4.28;;;;;;;;;;5044136;28;20045;-59
2023/11/03 04:58:39;;;;;;;9.13;4.18;;;;;;;;;;5046501;28;21462;-60
2023/11/03 05:01:05;;;;;;;9.10;3.90;;;;;;;;;;5044708;28;20067;-60
2023/11/03 05:03:32;;;;;;;7.13;3.83;;;;;;;;;;5045705;28;20045;-60
2023/11/03 05:05:58;;;;;;;10.77;4.57;;;;;;;;;;5045285;28;20545;-60
2023/11/03 05:08:24;;;;;;;13.50;4.70;;;;;;;;;;5044211;28;20350;-60
2023/11/03 05:10:50;;;;;;;9.40;4.60;;;;;;;;;;5047170;28;20226;-60
2023/11/03 05:13:16;;;;;;;13.77;4.20;;;;;;;;;;5050608;28;20041;-60
2023/11/03 05:15:43;;;;;;;7.90;3.95;;;;;;;;;;5046437;28;20053;-60
2023/11/03 05:18:12;;;;;;;10.88;3.78;;;;;;;;;;5048887;28;20453;-60
2023/11/03 05:20:38;;;;;;;11.40;4.80;;;;;;;;;;5049404;28;20048;-60
2023/11/03 05:23:05;;;;;;;13.52;3.53;;;;;;;;;;5049809;28;20037;-60
2023/11/03 05:25:31;;;;;;;9.60;3.03;;;;;;;;;;5050236;28;20052;-60
2023/11/03 05:27:57;;;;;;;11.73;3.45;;;;;;;;;;5047461;28;20048;-60
2023/11/03 05:30:23;;;;;;;11.45;3.35;;;;;;;;;;5046728;28;20049;-60
2023/11/03 05:32:50;;;;;;;9.20;3.22;;;;;;;;;;5044981;28;20037;-60
2023/11/03 05:35:21;;;;;;;8.07;3.53;;;;;;;;;;5046011;28;20242;-60
2023/11/03 05:37:47;;;;;;;11.48;3.45;;;;;;;;;;5044923;28;20051;-60
2023/11/03 05:40:14;;;;;;;10.43;3.15;;;;;;;;;;5044940;28;20036;-60
2023/11/03 05:42:40;;;;;;;7.75;3.60;;;;;;;;;;5043979;28;20091;-60
2023/11/03 05:45:07;;;;;;;10.50;3.38;;;;;;;;;;5043781;28;20041;-60
2023/11/03 05:47:33;;;;;;;6.50;3.50;;;;;;;;;;5044737;28;20400;-60
2023/11/03 05:49:59;;;;;;;10.52;3.20;;;;;;;;;;5044764;28;20037;-60
2023/11/03 05:52:25;;;;;;;8.13;2.92;;;;;;;;;;5044164;28;20353;-60
2023/11/03 05:54:52;;;;;;;9.23;2.83;;;;;;;;;;5043266;28;20357;-60
2023/11/03 05:57:18;;;;;;;9.48;3.22;;;;;;;;;;5042790;28;20552;-60
2023/11/03 05:59:44;;;;;;;11.73;3.67;;;;;;;;;;5044353;28;20033;-60
2023/11/03 06:02:11;;;;;;;11.13;3.45;;;;;;;;;;5043663;28;20104;-60
2023/11/03 06:04:37;;;;;;;12.13;3.80;;;;;;;;;;5044754;28;20075;-60
2023/11/03 06:07:06;;;;;;;8.98;3.42;;;;;;;;;;5043657;28;20045;-60
2023/11/03 06:09:33;;;;;;;6.28;3.20;;;;;;;;;;5043892;28;20505;-59
2023/11/03 06:12:00;;;;;;;11.13;3.75;;;;;;;;;;5042748;28;20041;-60
2023/11/03 06:14:27;;;;;;;7.38;2.90;;;;;;;;;;5040327;28;20488;-60
2023/11/03 06:16:54;;;;;;;9.30;2.63;;;;;;;;;;5048828;28;20053;-60
2023/11/03 06:19:20;;;;;;;8.02;3.00;;;;;;;;;;5044211;28;20044;-60
2023/11/03 06:21:47;;;;;;;11.80;3.25;;;;;;;;;;5039980;28;20169;-60
2023/11/03 06:24:13;;;;;;;10.93;3.63;;;;;;;;;;5050294;28;20048;-60
2023/11/03 06:26:39;;;;;;;12.27;3.67;;;;;;;;;;5047101;28;20045;-60
2023/11/03 06:29:05;;;;;;;10.32;3.28;;;;;;;;;;5049750;28;20067;-60
2023/11/03 06:31:32;;;;;;;12.73;3.65;;;;;;;;;;5053097;28;20048;-60
2023/11/03 06:33:58;;;;;;;12.57;4.10;;;;;;;;;;5052274;28;20040;-60
2023/11/03 06:36:24;;;;;;;11.02;4.10;;;;;;;;;;5050581;28;20037;-60
2023/11/03 06:38:50;;;;;;;14.10;4.07;;;;;;;;;;5046296;28;20049;-60
2023/11/03 06:41:16;;;;;;;8.57;5.30;;;;;;;;;;5049283;28;20045;-60
2023/11/03 06:43:43;;;;;;;15.93;6.22;;;;;;;;;;5051807;28;20116;-60
2023/11/03 06:46:09;;;;;;;12.98;4.45;;;;;;;;;;5050696;28;20113;-60
2023/11/03 06:48:39;;;;;;;9.75;3.90;;;;;;;;;;5050952;28;20124;-60
2023/11/03 06:51:11;;;;;;;10.77;3.70;;;;;;;;;;5051651;28;20081;-60
2023/11/03 06:53:37;;;;;;;11.60;4.85;;;;;;;;;;5050149;28;20032;-60
2023/11/03 06:56:04;;;;;;;10.48;4.38;;;;;;;;;;5050279;28;20099;-60
2023/11/03 06:58:32;;;;;;;14.75;4.70;;;;;;;;;;5045914;28;20052;-60
2023/11/03 07:00:59;;;;;;;9.10;4.15;;;;;;;;;;5043870;28;20049;-60
2023/11/03 07:03:25;;;;;;;11.43;4.43;;;;;;;;;;5043856;28;20044;-59
2023/11/03 07:05:52;;;;;;;15.23;5.38;;;;;;;;;;5045357;28;20564;-60
2023/11/03 07:08:19;;;;;;;12.18;4.35;;;;;;;;;;5045204;28;20201;-60
2023/11/03 07:10:45;;;;;;;11.77;4.30;;;;;;;;;;5049735;28;20068;-60
2023/11/03 07:13:11;;;;;;;12.13;4.28;;;;;;;;;;5049049;28;20033;-60
2023/11/03 07:15:37;;;;;;;14.57;4.60;;;;;;;;;;5049592;28;20044;-60
2023/11/03 07:18:04;;;;;;;13.73;4.22;;;;;;;;;;5047074;28;20532;-60
2023/11/03 07:20:30;;;;;;;11.10;3.95;;;;;;;;;;5051380;28;20040;-60
2023/11/03 07:22:56;;;;;;;12.40;3.90;;;;;;;;;;5050392;28;20045;-60
2023/11/03 07:25:25;;;;;;;12.38;3.95;;;;;;;;;;5048823;28;20047;-60
2023/11/03 07:27:51;;;;;;;12.02;3.80;;;;;;;;;;5050047;28;20564;-60
2023/11/03 07:30:17;;;;;;;14.73;4.72;;;;;;;;;;5049230;28;20406;-60
2023/11/03 07:32:44;;;;;;;13.45;4.20;;;;;;;;;;5049071;28;20413;-60
2023/11/03 07:35:13;;;;;;;15.93;5.38;;;;;;;;;;5048239;28;20036;-60
2023/11/03 07:37:40;;;;;;;19.92;5.47;;;;;;;;;;5048260;28;20049;-60
2023/11/03 07:40:06;;;;;;;16.50;5.25;;;;;;;;;;5050794;28;20087;-60
2023/11/03 07:42:32;;;;;;;23.65;5.63;;;;;;;;;;5050666;28;20162;-60
2023/11/03 07:44:58;;;;;;;22.38;5.63;;;;;;;;;;5050122;28;20396;-60
2023/11/03 07:47:25;;;;;;;17.83;5.15;;;;;;;;;;5047981;28;20092;-60
2023/11/03 07:49:52;;;;;;;19.55;5.40;;;;;;;;;;5044804;28;20392;-60
2023/11/03 07:52:18;;;;;;;16.40;5.88;;;;;;;;;;5048672;28;20116;-60
2023/11/03 07:54:44;;;;;;;19.00;6.45;;;;;;;;;;5050755;28;20041;-60
2023/11/03 07:57:12;;;;;;;22.52;6.88;;;;;;;;;;5048800;28;20045;-60
2023/11/03 07:59:41;;;;;;;17.75;6.55;;;;;;;;;;5042552;28;20523;-60
2023/11/03 08:02:07;;;;;;;14.35;6.05;;;;;;;;;;5050190;28;20040;-60
2023/11/03 08:04:34;;;;;;;22.35;7.72;;;;;;;;;;5048419;28;20063;-60
2023/11/03 08:07:00;;;;;;;19.65;5.88;;;;;;;;;;5049550;28;20202;-71
2023/11/03 08:09:27;;;;;;;18.58;6.00;;;;;;;;;;5010230;28;20136;-60
2023/11/03 08:11:54;;;;;;;13.88;5.40;;;;;;;;;;5044881;28;20100;-60
2023/11/03 08:14:20;;;;;;;22.67;5.25;;;;;;;;;;5048704;28;20041;-60
2023/11/03 08:16:48;;;;;;;17.25;5.22;;;;;;;;;;5048040;28;20049;-62
2023/11/03 08:19:14;;;;;;;16.75;4.60;;;;;;;;;;5049459;28;20041;-60
2023/11/03 08:21:43;;;;;;;23.40;5.03;;;;;;;;;;5054700;28;20115;-61
2023/11/03 08:24:13;;;;;;;28.35;5.78;;;;;;;;;;5054613;28;20056;-60
2023/11/03 08:26:40;;;;;;;24.88;5.30;;;;;;;;;;5053303;28;20484;-60
2023/11/03 08:29:08;;;;;;;23.58;4.45;;;;;;;;;;5045813;28;20509;-60
2023/11/03 08:31:35;;;;;;;17.60;4.40;;;;;;;;;;5035177;28;20140;-60
2023/11/03 08:34:04;;;;;;;15.02;3.70;;;;;;;;;;5051593;28;20115;-60
2023/11/03 08:36:34;;;;;;;15.95;3.95;;;;;;;;;;5054116;28;20048;-61
2023/11/03 08:39:00;;;;;;;23.02;5.50;;;;;;;;;;5053565;28;20551;-60
2023/11/03 08:41:26;;;;;;;24.77;6.32;;;;;;;;;;5053993;28;20080;-61
2023/11/03 08:43:53;;;;;;;17.95;4.68;;;;;;;;;;5053762;28;20039;-60
2023/11/03 08:46:19;;;;;;;26.98;5.80;;;;;;;;;;5050356;28;20120;-60
2023/11/03 08:48:46;;;;;;;15.23;4.15;;;;;;;;;;5053310;28;20194;-60
2023/11/03 08:51:12;;;;;;;26.05;4.88;;;;;;;;;;5048844;28;20037;-60
2023/11/03 08:53:40;;;;;;;30.58;5.72;;;;;;;;;;5048887;28;20405;-60
2023/11/03 08:56:06;;;;;;;19.48;4.70;;;;;;;;;;5052934;28;20052;-60
2023/11/03 08:58:34;;;;;;;20.30;5.68;;;;;;;;;;5052772;28;20053;-60
2023/11/03 09:01:00;;;;;;;29.92;4.43;;;;;;;;;;5047924;28;20382;-60
2023/11/03 09:03:28;;;;;;;26.70;5.88;;;;;;;;;;5049436;28;20052;-60
2023/11/03 09:05:54;;;;;;;24.10;5.00;;;;;;;;;;5042435;28;20041;-60
2023/11/03 09:08:21;;;;;;;20.42;5.00;;;;;;;;;;5053157;28;20410;-60
2023/11/03 09:10:47;;;;;;;11.93;4.38;;;;;;;;;;5053519;28;20528;-60
2023/11/03 09:13:13;;;;;;;23.65;5.18;;;;;;;;;;5052015;28;20033;-60
2023/11/03 09:15:39;;;;;;;15.98;4.18;;;;;;;;;;5035057;28;20472;-60
2023/11/03 09:18:05;;;;;;;23.30;4.82;;;;;;;;;;5053601;28;20079;-60
2023/11/03 09:20:31;;;;;;;20.75;4.00;;;;;;;;;;5051863;28;20067;-60
2023/11/03 09:22:58;;;;;;;19.77;5.57;;;;;;;;;;5049219;28;20103;-65
2023/11/03 09:25:24;;;;;;;27.00;4.57;;;;;;;;;;5035561;28;20044;-60
2023/11/03 09:27:50;;;;;;;19.80;4.45;;;;;;;;;;5051604;28;20043;-60
2023/11/03 09:30:16;;;;;;;18.85;4.28;;;;;;;;;;5052253;28;20057;-60
2023/11/03 09:32:43;;;;;;;23.10;4.28;;;;;;;;;;5053337;28;20055;-60
2023/11/03 09:35:09;;;;;;;22.83;5.30;;;;;;;;;;5052398;28;20098;-60
2023/11/03 09:37:35;;;;;;;22.73;5.10;;;;;;;;;;5050768;28;20467;-60
2023/11/03 09:40:02;;;;;;;34.90;5.05;;;;;;;;;;5053274;28;20041;-60
2023/11/03 09:42:28;;;;;;;21.90;6.20;;;;;;;;;;5050519;28;20497;-60
2023/11/03 09:44:57;;;;;;;31.38;6.70;;;;;;;;;;5052090;28;20045;-60
2023/11/03 09:47:24;;;;;;;25.63;5.28;;;;;;;;;;5053029;28;20037;-60
2023/11/03 09:49:51;;;;;;;22.58;5.13;;;;;;;;;;5052126;28;20457;-60
2023/11/03 09:52:19;;;;;;;27.08;5.97;;;;;;;;;;5051609;28;20033;-60
2023/11/03 09:54:46;;;;;;;29.52;6.05;;;;;;;;;;5053048;28;20155;-60
2023/11/03 09:57:13;;;;;;;25.23;5.75;;;;;;;;;;5051050;28;20033;-60
2023/11/03 09:59:40;;;;;;;21.98;5.57;;;;;;;;;;5052848;28;20404;-60
2023/11/03 10:02:11;;;;;;;25.73;5.93;;;;;;;;;;5034596;28;20396;-60
2023/11/03 10:04:40;;;;;;;26.70;5.35;;;;;;;;;;5051909;28;20077;-60
2023/11/03 10:07:11;;;;;;;22.27;4.80;;;;;;;;;;5044437;28;20147;-60
2023/11/03 10:09:40;;;;;;;24.35;4.78;;;;;;;;;;5052685;28;20106;-60
2023/11/03 10:12:10;;;;;;;30.77;5.03;;;;;;;;;;5049041;28;20045;-60
2023/11/03 10:14:40;;;;;;;32.97;4.85;;;;;;;;;;5052333;28;20098;-60
2023/11/03 10:17:09;;;;;;;20.83;5.18;;;;;;;;;;5052461;28;20045;-60
2023/11/03 10:19:38;;;;;;;27.00;4.38;;;;;;;;;;5051835;28;20049;-60
2023/11/03 10:22:08;;;;;;;28.10;4.30;;;;;;;;;;5046210;28;20049;-60
2023/11/03 10:24:35;;;;;;;25.63;4.50;;;;;;;;;;5046564;28;20063;-60
2023/11/03 10:27:01;;;;;;;19.65;4.40;;;;;;;;;;5052218;28;20056;-60
2023/11/03 10:29:28;;;;;;;22.10;5.28;;;;;;;;;;5049395;28;20148;-60
2023/11/03 10:31:54;;;;;;;31.67;4.72;;;;;;;;;;5041862;28;20429;-60
2023/11/03 10:34:22;;;;;;;23.75;4.38;;;;;;;;;;5052292;28;20426;-60
2023/11/03 10:36:49;;;;;;;21.85;4.45;;;;;;;;;;5052024;28;20041;-60
2023/11/03 10:39:16;;;;;;;16.98;4.35;;;;;;;;;;5050963;28;20131;-60
2023/11/03 10:41:43;;;;;;;15.93;3.40;;;;;;;;;;5050146;28;20041;-60
2023/11/03 10:44:14;;;;;;;19.50;4.13;;;;;;;;;;5047183;28;20045;-60
2023/11/03 10:46:44;;;;;;;16.38;3.03;;;;;;;;;;5049531;28;20128;-60
2023/11/03 10:49:21;;;;;;;22.08;4.50;;;;;;;;;;5050879;28;20104;-60
2023/11/03 10:52:14;;;;;;;17.30;4.20;;;;;;;;;;5051804;28;20040;-60
2023/11/03 10:54:58;;;;;;;22.60;4.53;;;;;;;;;;5042995;28;20416;-60
2023/11/03 10:57:24;;;;;;;23.75;4.13;;;;;;;;;;5051755;28;20484;-60
2023/11/03 10:59:57;;;;;;;24.17;3.90;;;;;;;;;;5050788;28;20045;-60
2023/11/03 11:02:37;;;;;;;17.77;4.17;;;;;;;;;;5050627;28;20083;-60
2023/11/03 11:05:11;;;;;;;19.50;3.88;;;;;;;;;;5051538;28;20716;-60
2023/11/03 11:07:38;;;;;;;17.98;3.15;;;;;;;;;;5050763;28;20045;-60
2023/11/03 11:10:04;;;;;;;17.05;4.03;;;;;;;;;;5049827;28;20037;-60
2023/11/03 11:12:46;;;;;;;21.27;3.47;;;;;;;;;;5051358;28;20382;-60
2023/11/03 11:15:17;;;;;;;19.90;3.08;;;;;;;;;;5049914;28;20045;-60
2023/11/03 11:17:43;;;;;;;17.77;3.08;;;;;;;;;;5049894;28;20103;-60
2023/11/03 11:20:11;;;;;;;18.10;3.22;;;;;;;;;;5043557;28;20481;-60
2023/11/03 11:22:40;;;;;;;19.90;2.85;;;;;;;;;;5046725;28;20113;-60
2023/11/03 11:25:10;;;;;;;17.02;3.20;;;;;;;;;;5043863;28;20041;-61
2023/11/03 11:27:39;;;;;;;14.15;3.47;;;;;;;;;;5029339;28;20485;-60
2023/11/03 11:30:23;;;;;;;13.30;2.90;;;;;;;;;;5052484;28;20045;-60
2023/11/03 11:32:53;;;;;;;11.77;2.72;;;;;;;;;;5051018;28;20117;-60
2023/11/03 11:35:20;;;;;;;18.20;3.22;;;;;;;;;;5047172;28;20029;-60
2023/11/03 11:37:47;;;;;;;21.00;4.47;;;;;;;;;;5050902;28;20056;-60
2023/11/03 11:40:13;;;;;;;16.73;3.45;;;;;;;;;;5050116;28;20469;-60
2023/11/03 11:42:43;;;;;;;21.27;3.90;;;;;;;;;;5049705;28;20162;-60
2023/11/03 11:45:14;;;;;;;22.98;4.10;;;;;;;;;;5049915;28;20076;-60
2023/11/03 11:47:44;;;;;;;20.67;3.72;;;;;;;;;;5050146;28;20468;-60
2023/11/03 11:50:11;;;;;;;22.17;3.92;;;;;;;;;;5048558;28;20544;-60
2023/11/03 11:52:39;;;;;;;21.13;3.60;;;;;;;;;;5050268;28;20048;-60
2023/11/03 11:55:09;;;;;;;23.40;3.67;;;;;;;;;;5049931;28;20104;-59
2023/11/03 11:57:37;;;;;;;20.30;3.72;;;;;;;;;;5049980;28;20044;-60
2023/11/03 12:00:07;;;;;;;20.10;4.25;;;;;;;;;;5050943;28;20117;-60
2023/11/03 12:02:34;;;;;;;21.00;3.85;;;;;;;;;;5047751;28;20076;-60
2023/11/03 12:05:00;;;;;;;14.85;3.55;;;;;;;;;;5047747;28;20051;-60
2023/11/03 12:07:30;;;;;;;18.35;3.47;;;;;;;;;;5048711;28;20436;-60
2023/11/03 12:09:57;;;;;;;12.57;2.88;;;;;;;;;;5039985;28;20029;-60
2023/11/03 12:12:24;;;;;;;20.48;2.78;;;;;;;;;;5047091;28;20117;-60
2023/11/03 12:14:50;;;;;;;18.20;3.65;;;;;;;;;;5049722;28;20141;-60
2023/11/03 12:17:20;;;;;;;16.67;3.00;;;;;;;;;;5051129;28;20174;-59
2023/11/03 12:19:50;;;;;;;14.15;3.33;;;;;;;;;;5052276;28;20041;-61
2023/11/03 12:22:20;;;;;;;14.73;2.88;;;;;;;;;;5050280;28;20044;-61
2023/11/03 12:24:50;;;;;;;24.33;4.47;;;;;;;;;;5049560;28;20037;-61
2023/11/03 12:27:19;;;;;;;14.02;2.85;;;;;;;;;;5045177;28;20107;-61
2023/11/03 12:29:45;;;;;;;17.38;3.03;;;;;;;;;;5049972;28;20079;-61
2023/11/03 12:32:12;;;;;;;17.00;3.85;;;;;;;;;;5043009;28;20064;-61
2023/11/03 12:34:38;;;;;;;12.68;2.30;;;;;;;;;;5049227;28;20132;-61
2023/11/03 12:37:05;;;;;;;15.88;2.60;;;;;;;;;;5050084;28;20071;-61
2023/11/03 12:39:31;;;;;;;10.25;2.17;;;;;;;;;;5044801;28;20033;-61
2023/11/03 12:42:09;;;;;;;18.20;2.72;;;;;;;;;;5048513;28;20041;-61
2023/11/03 12:44:51;;;;;;;11.70;2.67;;;;;;;;;;5047073;28;20064;-61
2023/11/03 12:47:37;;;;;;;14.82;2.75;;;;;;;;;;5042543;28;20041;-60
2023/11/03 12:50:17;;;;;;;12.88;2.58;;;;;;;;;;5044755;28;20041;-61
2023/11/03 12:53:07;;;;;;;10.75;2.50;;;;;;;;;;5039070;28;20128;-60
2023/11/03 12:55:37;;;;;;;7.18;2.42;;;;;;;;;;5047109;28;20115;-60
2023/11/03 12:58:09;;;;;;;14.95;2.40;;;;;;;;;;5048576;28;20045;-60
2023/11/03 13:00:36;;;;;;;;;;;;;;;;;;5048620;28;20127;-60
2023/11/03 13:03:03;;;;;;;16.33;3.10;;;;;;;;;;5050100;28;19999;-60
2023/11/03 13:05:30;;;;;;;12.50;3.05;;;;;;;;;;5051398;28;20045;-60
2023/11/03 13:07:56;;;;;;;16.95;2.28;;;;;;;;;;5053471;28;20051;-59
2023/11/03 13:10:23;;;;;;;14.55;1.90;;;;;;;;;;5051089;28;20037;-60
2023/11/03 13:12:49;;;;;;;13.45;2.15;;;;;;;;;;5053370;28;20087;-60
2023/11/03 13:15:16;;;;;;;14.27;2.85;;;;;;;;;;5053339;28;20223;-60
2023/11/03 13:17:42;;;;;;;19.33;2.97;;;;;;;;;;5052618;28;20424;-60
2023/11/03 13:20:17;;;;;;;17.27;3.17;;;;;;;;;;5053407;28;20476;-60
2023/11/03 13:22:44;;;;;;;15.10;3.33;;;;;;;;;;5053685;28;20056;-60
2023/11/03 13:25:10;;;;;;;17.55;3.60;;;;;;;;;;5053511;28;20045;-60
2023/11/03 13:27:37;;;;;;;13.18;2.88;;;;;;;;;;5052790;28;20052;-60
2023/11/03 13:30:04;;;;;;;15.48;2.90;;;;;;;;;;5053059;28;20501;-60
2023/11/03 13:32:30;;;;;;;17.55;3.55;;;;;;;;;;5052529;28;20048;-60
2023/11/03 13:34:56;;;;;;;19.48;3.78;;;;;;;;;;5052546;28;20574;-60
2023/11/03 13:37:22;;;;;;;16.45;2.55;;;;;;;;;;5053188;28;20115;-60
2023/11/03 13:39:48;;;;;;;19.55;3.38;;;;;;;;;;5052330;28;20049;-60
2023/11/03 13:42:15;;;;;;;19.40;3.75;;;;;;;;;;5052524;28;20048;-60
2023/11/03 13:44:41;;;;;;;12.20;1.92;;;;;;;;;;5052356;28;20040;-60
2023/11/03 13:47:08;;;;;;;16.70;3.05;;;;;;;;;;5052668;28;20033;-60
2023/11/03 13:49:35;;;;;;;19.10;4.07;;;;;;;;;;5052514;28;20135;-60
2023/11/03 13:52:01;;;;;;;10.35;2.22;;;;;;;;;;5053065;28;20382;-60
2023/11/03 13:54:28;;;;;;;15.50;3.88;;;;;;;;;;5053017;28;20450;-60
2023/11/03 13:56:54;;;;;;;19.48;3.22;;;;;;;;;;5052007;28;20114;-60
2023/11/03 13:59:21;;;;;;;18.77;2.72;;;;;;;;;;5052108;28;20385;-60
2023/11/03 14:01:48;;;;;;;18.25;2.70;;;;;;;;;;5047007;28;20041;-60
2023/11/03 14:04:15;;;;;;;21.63;3.50;;;;;;;;;;5052213;28;20045;-60
2023/11/03 14:06:41;;;;;;;22.45;4.15;;;;;;;;;;5052723;28;20543;-60
2023/11/03 14:09:10;;;;;;;16.48;2.95;;;;;;;;;;5050561;28;20095;-59
2023/11/03 14:11:37;;;;;;;17.02;2.90;;;;;;;;;;5048637;28;20131;-60
2023/11/03 14:14:04;;;;;;;17.73;3.08;;;;;;;;;;5051205;28;20049;-59
2023/11/03 14:16:30;;;;;;;16.70;3.15;;;;;;;;;;5050421;28;20124;-60
2023/11/03 14:18:57;;;;;;;16.30;3.38;;;;;;;;;;5052614;28;20179;-60
2023/11/03 14:21:26;;;;;;;20.08;3.00;;;;;;;;;;5052418;28;20180;-60
2023/11/03 14:23:53;;;;;;;16.13;3.28;;;;;;;;;;5051992;28;20570;-59
2023/11/03 14:26:20;;;;;;;18.13;2.80;;;;;;;;;;5052136;28;20159;-60
2023/11/03 14:28:46;;;;;;;20.75;3.40;;;;;;;;;;5051763;28;20542;-59
2023/11/03 14:31:12;;;;;;;22.42;3.90;;;;;;;;;;5047987;28;20409;-60
2023/11/03 14:33:39;;;;;;;11.75;2.05;;;;;;;;;;5050857;28;20493;-60